Time;durP1;ratioP1;P1;durP2;ratioP2;P2;SDS_P1;SDS_P2;PMS_P1;PMS_P2;Temp;Humidity;BMP_temperature;BMP_pressure;BME280_temperature;BME280_humidity;BME280_pressure;Samples;Min_cycle;Max_cycle;Signal;HPM_P1;HPM_P2
2022/03/13 00:01:06;;;;;;;;;;;15.80;36.40;;;;;;5024375;28;42998;-76
2022/03/13 00:03:33;;;;;;;;;;;15.80;36.50;;;;;;5024531;28;43821;-76
2022/03/13 00:05:59;;;;;;;;;;;15.80;36.70;;;;;;5024552;28;43033;-76
2022/03/13 00:08:27;;;;;;;;;;;15.80;36.10;;;;;;5024063;28;44431;-77
2022/03/13 00:10:56;;;;;;;;;;;15.70;36.10;;;;;;5024490;28;43047;-79
2022/03/13 00:13:25;;;;;;;;;;;15.70;36.60;;;;;;5024223;28;43307;-76
2022/03/13 00:15:52;;;;;;;;;;;15.80;36.70;;;;;;5021702;28;42849;-76
2022/03/13 00:18:20;;;;;;;;;;;15.80;36.80;;;;;;5024656;28;43553;-76
2022/03/13 00:20:46;;;;;;;;;;;15.80;36.30;;;;;;5024399;28;42944;-77
2022/03/13 00:23:12;;;;;;;;;;;15.80;36.80;;;;;;5024790;28;42959;-76
2022/03/13 00:25:38;;;;;;;;;;;15.70;36.70;;;;;;5023729;28;43596;-76
2022/03/13 00:28:04;;;;;;;;;;;15.80;36.70;;;;;;5023610;28;43376;-77
2022/03/13 00:30:29;;;;;;;;;;;15.80;36.80;;;;;;5011058;28;42985;-77
2022/03/13 00:32:55;;;;;;;;;;;15.80;36.80;;;;;;5023629;28;43533;-76
2022/03/13 00:35:20;;;;;;;;;;;15.70;36.80;;;;;;5024219;28;42802;-76
2022/03/13 00:37:46;;;;;;;;;;;15.70;36.30;;;;;;5023683;28;44191;-76
2022/03/13 00:40:12;;;;;;;;;;;15.80;36.80;;;;;;5023488;28;42976;-77
2022/03/13 00:42:38;;;;;;;;;;;15.80;37.00;;;;;;5023185;28;43661;-76
2022/03/13 00:45:04;;;;;;;;;;;15.70;36.80;;;;;;5024227;28;42838;-77
2022/03/13 00:47:29;;;;;;;;;;;15.70;36.80;;;;;;5025201;28;43716;-77
2022/03/13 00:49:55;;;;;;;;;;;15.70;36.90;;;;;;5024944;28;42977;-77
2022/03/13 00:52:20;;;;;;;;;;;15.70;36.40;;;;;;5022818;28;44194;-77
2022/03/13 00:54:46;;;;;;;;;;;15.80;36.90;;;;;;5024325;28;42899;-77
2022/03/13 00:57:12;;;;;;;;;;;15.80;37.00;;;;;;5023430;28;43486;-76
2022/03/13 00:59:37;;;;;;;;;;;13.40;35.40;;;;;;5024231;28;42904;-77
2022/03/13 01:02:03;;;;;;;;;;;15.80;37.10;;;;;;5024874;28;42965;-76
2022/03/13 01:04:28;;;;;;;;;;;15.80;37.10;;;;;;5024887;28;42991;-77
2022/03/13 01:06:54;;;;;;;;;;;15.80;37.10;;;;;;5023442;28;44705;-76
2022/03/13 01:09:19;;;;;;;;;;;15.70;37.30;;;;;;5025006;28;42877;-77
2022/03/13 01:11:45;;;;;;;;;;;15.70;36.60;;;;;;5025594;28;44063;-77
2022/03/13 01:14:11;;;;;;;;;;;15.70;37.10;;;;;;5025523;28;42948;-78
2022/03/13 01:16:39;;;;;;;;;;;15.70;37.10;;;;;;5024556;28;43789;-78
2022/03/13 01:19:05;;;;;;;;;;;15.70;37.10;;;;;;5025002;28;42937;-77
2022/03/13 01:21:32;;;;;;;;;;;15.70;37.10;;;;;;5023845;28;43287;-77
2022/03/13 01:24:01;;;;;;;;;;;15.80;37.20;;;;;;5024070;28;42970;-77
2022/03/13 01:26:26;;;;;;;;;;;15.80;37.00;;;;;;5022137;28;42896;-77
2022/03/13 01:28:57;;;;;;;;;;;15.70;37.10;;;;;;5024414;28;43023;-74
2022/03/13 01:31:24;;;;;;;;;;;14.90;36.60;;;;;;5024795;28;42810;-75
2022/03/13 01:33:50;;;;;;;;;;;15.80;37.10;;;;;;5024884;28;42941;-78
2022/03/13 01:36:15;;;;;;;;;;;15.80;37.30;;;;;;5023682;28;43052;-77
2022/03/13 01:38:41;;;;;;;;;;;15.80;37.20;;;;;;5023454;28;42976;-77
2022/03/13 01:41:07;;;;;;;;;;;15.70;37.30;;;;;;5024956;28;42827;-78
2022/03/13 01:43:32;;;;;;;;;;;15.70;37.10;;;;;;5027828;28;43108;-77
2022/03/13 01:45:59;;;;;;;;;;;15.70;36.70;;;;;;5026606;28;44651;-77
2022/03/13 01:48:26;;;;;;;;;;;15.70;37.70;;;;;;5028457;28;42892;-77
2022/03/13 01:50:51;;;;;;;;;;;15.70;37.20;;;;;;5027966;28;43651;-77
2022/03/13 01:53:18;;;;;;;;;;;15.70;37.30;;;;;;5027622;28;43305;-77
2022/03/13 01:55:44;;;;;;;;;;;15.70;37.30;;;;;;5027785;28;42935;-77
2022/03/13 01:58:09;;;;;;;;;;;15.70;37.80;;;;;;5027487;28;42819;-77
2022/03/13 02:00:35;;;;;;;;;;;15.70;37.30;;;;;;5026920;28;43618;-77
2022/03/13 02:03:01;;;;;;;;;;;15.70;37.30;;;;;;5027377;28;42920;-78
2022/03/13 02:05:30;;;;;;;;;;;15.70;37.40;;;;;;5026768;28;42888;-78
2022/03/13 02:07:58;;;;;;;;;;;15.70;37.30;;;;;;5027052;28;43206;-77
2022/03/13 02:10:24;;;;;;;;;;;15.70;37.40;;;;;;5025541;28;43275;-77
2022/03/13 02:12:49;;;;;;;;;;;15.70;37.50;;;;;;5027023;28;42848;-77
2022/03/13 02:15:15;;;;;;;;;;;15.70;37.50;;;;;;5027361;28;43102;-77
2022/03/13 02:17:41;;;;;;;;;;;15.70;37.50;;;;;;5027729;28;42868;-77
2022/03/13 02:20:12;;;;;;;;;;;15.70;37.00;;;;;;5027093;28;43044;-77
2022/03/13 02:22:38;;;;;;;;;;;15.70;37.50;;;;;;5027241;28;42908;-77
2022/03/13 02:25:04;;;;;;;;;;;15.70;37.60;;;;;;5026925;28;42987;-77
2022/03/13 02:27:32;;;;;;;;;;;15.70;37.00;;;;;;5026914;28;43009;-77
2022/03/13 02:29:57;;;;;;;;;;;15.70;37.50;;;;;;5026870;28;43546;-76
2022/03/13 02:32:23;;;;;;;;;;;15.70;37.00;;;;;;5026920;28;43002;-77
2022/03/13 02:34:49;;;;;;;;;;;15.70;37.00;;;;;;5025749;28;44654;-77
2022/03/13 02:37:17;;;;;;;;;;;15.70;37.10;;;;;;5017728;28;43020;-77
2022/03/13 02:39:43;;;;;;;;;;;15.70;37.10;;;;;;5005001;28;42952;-77
2022/03/13 02:42:08;;;;;;;;;;;15.70;37.10;;;;;;5007100;28;43098;-76
2022/03/13 02:44:34;;;;;;;;;;;15.70;37.10;;;;;;5007034;28;43300;-77
2022/03/13 02:47:02;;;;;;;;;;;15.70;37.60;;;;;;5007537;28;42798;-77
2022/03/13 02:49:29;;;;;;;;;;;15.70;37.60;;;;;;5007400;28;42964;-77
2022/03/13 02:51:56;;;;;;;;;;;16.00;37.80;;;;;;5007267;28;43345;-77
2022/03/13 02:54:22;;;;;;;;;;;15.70;37.60;;;;;;5006977;28;43533;-77
2022/03/13 02:56:48;;;;;;;;;;;15.70;37.70;;;;;;5007219;28;42878;-77
2022/03/13 02:59:13;;;;;;;;;;;15.70;37.60;;;;;;5006812;28;43693;-76
2022/03/13 03:01:40;;;;;;;;;;;15.70;37.70;;;;;;5006787;28;42922;-76
2022/03/13 03:04:05;;;;;;;;;;;15.70;37.50;;;;;;5006251;28;42971;-77
2022/03/13 03:06:32;;;;;;;;;;;15.70;37.60;;;;;;5006215;28;42897;-76
2022/03/13 03:08:58;;;;;;;;;;;15.70;37.70;;;;;;5006034;28;43825;-77
2022/03/13 03:11:23;;;;;;;;;;;15.70;37.70;;;;;;5006634;28;43081;-77
2022/03/13 03:13:49;;;;;;;;;;;15.70;37.70;;;;;;5006116;28;43221;-76
2022/03/13 03:16:15;;;;;;;;;;;15.80;37.80;;;;;;5006167;28;43068;-77
2022/03/13 03:18:40;;;;;;;;;;;15.70;37.90;;;;;;5006286;28;43684;-76
2022/03/13 03:21:06;;;;;;;;;;;15.70;37.80;;;;;;5006182;28;43250;-76
2022/03/13 03:23:32;;;;;;;;;;;15.70;37.80;;;;;;5005926;28;43676;-76
2022/03/13 03:25:57;;;;;;;;;;;15.70;37.70;;;;;;5004427;28;43065;-77
2022/03/13 03:28:23;;;;;;;;;;;15.70;37.80;;;;;;5005889;28;43464;-77
2022/03/13 03:30:49;;;;;;;;;;;15.70;37.70;;;;;;5005954;28;43155;-76
2022/03/13 03:33:14;;;;;;;;;;;15.70;37.80;;;;;;5005841;28;42862;-77
2022/03/13 03:35:40;;;;;;;;;;;15.70;37.90;;;;;;5007042;28;42907;-77
2022/03/13 03:38:06;;;;;;;;;;;15.70;37.90;;;;;;5006169;28;43717;-76
2022/03/13 03:40:32;;;;;;;;;;;15.70;37.90;;;;;;5006533;28;42758;-77
2022/03/13 03:42:58;;;;;;;;;;;15.70;37.80;;;;;;5006373;28;43396;-77
2022/03/13 03:45:24;;;;;;;;;;;15.70;37.80;;;;;;5006565;28;43187;-77
2022/03/13 03:47:50;;;;;;;;;;;15.80;37.90;;;;;;5006655;28;42944;-78
2022/03/13 03:50:16;;;;;;;;;;;15.70;37.90;;;;;;5007124;28;43015;-77
2022/03/13 03:52:44;;;;;;;;;;;15.70;37.70;;;;;;5005620;28;43651;-77
2022/03/13 03:55:10;;;;;;;;;;;15.70;37.80;;;;;;5006370;28;43028;-77
2022/03/13 03:57:36;;;;;;;;;;;15.70;37.80;;;;;;5021211;28;44451;-77
2022/03/13 04:00:02;;;;;;;;;;;15.70;37.90;;;;;;5006474;28;43016;-77
2022/03/13 04:02:28;;;;;;;;;;;15.70;37.90;;;;;;5004479;28;43487;-77
2022/03/13 04:04:54;;;;;;;;;;;15.70;38.00;;;;;;5005365;28;42860;-77
2022/03/13 04:07:19;;;;;;;;;;;16.40;38.20;;;;;;5006162;28;43120;-79
2022/03/13 04:09:45;;;;;;;;;;;15.70;37.90;;;;;;5005954;28;42976;-78
2022/03/13 04:12:11;;;;;;;;;;;15.70;38.00;;;;;;5005571;28;43000;-77
2022/03/13 04:14:37;;;;;;;;;;;15.70;37.90;;;;;;5005715;28;43597;-77
2022/03/13 04:17:03;;;;;;;;;;;15.70;37.90;;;;;;5006674;28;43362;-78
2022/03/13 04:19:29;;;;;;;;;;;15.70;37.90;;;;;;5006731;28;43193;-78
2022/03/13 04:21:54;;;;;;;;;;;15.70;38.00;;;;;;5005926;28;44763;-82
2022/03/13 04:24:20;;;;;;;;;;;15.70;38.00;;;;;;5005336;28;42920;-76
2022/03/13 04:26:46;;;;;;;;;;;15.70;37.90;;;;;;5003852;28;43304;-78
2022/03/13 04:29:12;;;;;;;;;;;15.70;38.00;;;;;;5004702;28;43096;-78
2022/03/13 04:31:41;;;;;;;;;;;15.70;38.00;;;;;;5004965;28;42926;-77
2022/03/13 04:34:07;;;;;;;;;;;15.70;37.90;;;;;;5005627;28;43529;-77
2022/03/13 04:36:33;;;;;;;;;;;15.70;38.00;;;;;;5005310;28;42908;-77
2022/03/13 04:38:58;;;;;;;;;;;15.70;38.10;;;;;;5005360;28;43162;-78
2022/03/13 04:41:24;;;;;;;;;;;15.70;38.00;;;;;;5004316;28;43664;-77
2022/03/13 04:43:50;;;;;;;;;;;15.70;38.10;;;;;;5004962;28;43018;-77
2022/03/13 04:46:19;;;;;;;;;;;15.60;38.00;;;;;;5023011;28;43739;-75
2022/03/13 04:48:53;;;;;;;;;;;15.70;38.00;;;;;;5025861;28;42945;-77
2022/03/13 04:51:19;;;;;;;;;;;15.70;38.00;;;;;;5025638;28;43261;-78
2022/03/13 04:53:45;;;;;;;;;;;15.60;38.00;;;;;;5025019;28;42923;-77
2022/03/13 04:56:11;;;;;;;;;;;15.60;38.10;;;;;;5024432;28;42932;-76
2022/03/13 04:58:37;;;;;;;;;;;15.70;38.00;;;;;;5025169;28;43133;-80
2022/03/13 05:01:02;;;;;;;;;;;15.60;37.50;;;;;;5024293;28;44764;-75
2022/03/13 05:03:31;;;;;;;;;;;16.40;38.40;;;;;;5024596;28;43219;-76
2022/03/13 05:05:57;;;;;;;;;;;15.70;38.10;;;;;;5024634;28;43620;-76
2022/03/13 05:08:23;;;;;;;;;;;15.70;38.10;;;;;;5023614;28;43001;-76
2022/03/13 05:10:48;;;;;;;;;;;15.70;38.10;;;;;;5024599;28;43405;-76
2022/03/13 05:13:15;;;;;;;;;;;15.70;38.20;;;;;;5023414;28;42983;-77
2022/03/13 05:15:41;;;;;;;;;;;15.70;38.10;;;;;;5024760;28;42948;-76
2022/03/13 05:18:07;;;;;;;;;;;15.70;38.10;;;;;;5025159;28;43064;-76
2022/03/13 05:20:34;;;;;;;;;;;15.60;38.10;;;;;;5025177;28;43569;-76
2022/03/13 05:23:00;;;;;;;;;;;15.60;37.70;;;;;;5025116;28;42954;-76
2022/03/13 05:25:27;;;;;;;;;;;15.60;38.10;;;;;;5022605;28;44348;-75
2022/03/13 05:27:52;;;;;;;;;;;15.70;38.10;;;;;;5024144;28;42849;-76
2022/03/13 05:30:20;;;;;;;;;;;15.70;38.20;;;;;;5024716;28;43290;-76
2022/03/13 05:32:46;;;;;;;;;;;15.60;38.10;;;;;;5023744;28;42805;-76
2022/03/13 05:35:12;;;;;;;;;;;15.70;38.20;;;;;;5023771;28;43424;-76
2022/03/13 05:37:37;;;;;;;;;;;15.70;38.30;;;;;;5023785;28;43007;-76
2022/03/13 05:40:05;;;;;;;;;;;15.70;38.30;;;;;;5023597;28;43382;-77
2022/03/13 05:42:30;;;;;;;;;;;15.60;38.20;;;;;;5024917;28;42911;-76
2022/03/13 05:44:56;;;;;;;;;;;15.70;38.20;;;;;;5023256;28;43608;-76
2022/03/13 05:47:21;;;;;;;;;;;15.70;38.40;;;;;;5023520;28;42826;-76
2022/03/13 05:49:47;;;;;;;;;;;15.70;38.90;;;;;;5023780;28;43077;-76
2022/03/13 05:52:16;;;;;;;;;;;15.70;38.40;;;;;;5023492;28;43059;-77
2022/03/13 05:54:44;;;;;;;;;;;15.70;38.30;;;;;;5023878;28;42809;-76
2022/03/13 05:57:10;;;;;;;;;;;15.70;38.50;;;;;;5022432;28;44258;-77
2022/03/13 05:59:39;;;;;;;;;;;15.70;38.30;;;;;;5023036;28;42978;-75
2022/03/13 06:02:05;;;;;;;;;;;15.60;37.90;;;;;;5023419;28;43088;-76
2022/03/13 06:04:39;;;;;;;;;;;15.60;38.30;;;;;;5024027;28;42962;-76
2022/03/13 06:07:05;;;;;;;;;;;15.60;38.30;;;;;;5023597;28;42955;-76
2022/03/13 06:09:31;;;;;;;;;;;15.70;38.50;;;;;;5023229;28;43796;-76
2022/03/13 06:11:57;;;;;;;;;;;15.70;38.40;;;;;;5013995;28;43056;-76
2022/03/13 06:14:23;;;;;;;;;;;15.70;38.40;;;;;;5021491;28;43763;-76
2022/03/13 06:16:49;;;;;;;;;;;15.60;38.30;;;;;;5019960;28;43106;-76
2022/03/13 06:19:14;;;;;;;;;;;15.70;37.90;;;;;;5006453;28;42913;-76
2022/03/13 06:21:40;;;;;;;;;;;15.80;38.30;;;;;;5001833;28;42996;-80
2022/03/13 06:24:06;;;;;;;;;;;15.80;38.20;;;;;;5019895;28;42984;-79
2022/03/13 06:26:31;;;;;;;;;;;15.80;38.40;;;;;;5025215;28;42912;-80
2022/03/13 06:28:57;;;;;;;;;;;15.90;38.30;;;;;;5024017;28;43673;-78
2022/03/13 06:31:23;;;;;;;;;;;15.90;37.40;;;;;;5026591;28;42963;-77
2022/03/13 06:33:48;;;;;;;;;;;14.90;30.00;;;;;;5026143;28;43268;-77
2022/03/13 06:36:14;;;;;;;;;;;13.90;28.00;;;;;;5027269;28;42935;-78
2022/03/13 06:38:39;;;;;;;;;;;13.40;27.30;;;;;;5026469;28;43460;-80
2022/03/13 06:41:05;;;;;;;;;;;13.50;27.80;;;;;;5025718;28;42920;-79
2022/03/13 06:43:31;;;;;;;;;;;13.30;26.90;;;;;;5025541;28;43747;-79
2022/03/13 06:45:57;;;;;;;;;;;13.20;26.80;;;;;;5026307;28;43216;-80
2022/03/13 06:48:22;;;;;;;;;;;13.10;26.60;;;;;;5026386;28;42912;-80
2022/03/13 06:50:48;;;;;;;;;;;13.20;26.60;;;;;;5026330;28;42912;-80
2022/03/13 06:53:14;;;;;;;;;;;13.20;26.40;;;;;;5024923;28;44480;-77
2022/03/13 06:55:40;;;;;;;;;;;13.20;26.30;;;;;;5025666;28;42807;-80
2022/03/13 06:58:06;;;;;;;;;;;13.30;26.20;;;;;;5026597;28;43082;-80
2022/03/13 07:00:32;;;;;;;;;;;13.30;26.70;;;;;;5025598;28;42895;-79
2022/03/13 07:02:57;;;;;;;;;;;13.30;26.50;;;;;;5025900;28;43969;-79
2022/03/13 07:05:24;;;;;;;;;;;13.40;27.20;;;;;;5026339;28;42901;-79
2022/03/13 07:07:50;;;;;;;;;;;13.30;26.40;;;;;;5025006;28;44638;-77
2022/03/13 07:10:15;;;;;;;;;;;13.20;26.10;;;;;;5026226;28;43145;-78
2022/03/13 07:12:44;;;;;;;;;;;13.10;26.10;;;;;;5026354;28;42971;-79
2022/03/13 07:15:12;;;;;;;;;;;13.20;26.00;;;;;;5025461;28;42804;-78
2022/03/13 07:17:38;;;;;;;;;;;13.20;25.80;;;;;;5025954;28;44388;-78
2022/03/13 07:20:05;;;;;;;;;;;13.20;25.90;;;;;;5026039;28;43010;-78
2022/03/13 07:22:31;;;;;;;;;;;13.10;25.90;;;;;;5023812;28;44534;-78
2022/03/13 07:24:56;;;;;;;;;;;13.10;25.60;;;;;;5025441;28;43009;-79
2022/03/13 07:27:22;;;;;;;;;;;13.10;26.10;;;;;;5025413;28;42881;-78
2022/03/13 07:29:50;;;;;;;;;;;13.20;26.00;;;;;;5025110;28;43008;-78
2022/03/13 07:32:15;;;;;;;;;;;13.30;26.20;;;;;;5025234;28;43697;-80
2022/03/13 07:34:41;;;;;;;;;;;13.40;26.20;;;;;;5025891;28;43527;-79
2022/03/13 07:37:10;;;;;;;;;;;13.20;26.20;;;;;;5024247;28;42932;-79
2022/03/13 07:39:36;;;;;;;;;;;13.20;25.40;;;;;;5023791;28;43106;-82
2022/03/13 07:42:02;;;;;;;;;;;13.30;25.90;;;;;;5025318;28;43146;-80
2022/03/13 07:44:27;;;;;;;;;;;13.40;26.00;;;;;;5023593;28;42959;-81
2022/03/13 07:46:54;;;;;;;;;;;13.40;25.70;;;;;;5026206;28;43005;-81
2022/03/13 07:49:20;;;;;;;;;;;13.40;25.60;;;;;;5023973;28;42956;-80
2022/03/13 07:51:46;;;;;;;;;;;13.40;25.40;;;;;;5025075;28;43180;-81
2022/03/13 07:54:13;;;;;;;;;;;13.30;25.20;;;;;;5025601;28;42987;-80
2022/03/13 07:56:38;;;;;;;;;;;13.40;26.00;;;;;;5024968;28;43490;-77
2022/03/13 07:59:04;;;;;;;;;;;13.40;25.10;;;;;;5024340;28;43048;-80
2022/03/13 08:01:29;;;;;;;;;;;13.50;24.90;;;;;;5023501;28;43676;-77
2022/03/13 08:03:55;;;;;;;;;;;13.70;24.90;;;;;;5024323;28;43081;-81
2022/03/13 08:06:23;;;;;;;;;;;13.70;24.60;;;;;;5023674;28;63378;-80
2022/03/13 08:08:49;;;;;;;;;;;13.70;24.50;;;;;;5023424;28;43005;-80
2022/03/13 08:11:15;;;;;;;;;;;13.80;24.80;;;;;;5025540;28;43848;-80
2022/03/13 08:13:40;;;;;;;;;;;13.70;24.80;;;;;;5026113;28;42926;-80
2022/03/13 08:16:06;;;;;;;;;;;13.80;24.90;;;;;;5024116;28;44511;-78
2022/03/13 08:18:34;;;;;;;;;;;13.80;24.90;;;;;;5025788;28;42993;-79
2022/03/13 08:21:00;;;;;;;;;;;13.80;24.80;;;;;;5025352;28;43478;-80
2022/03/13 08:23:25;;;;;;;;;;;13.80;24.80;;;;;;5023643;28;42968;-80
2022/03/13 08:25:51;;;;;;;;;;;13.80;24.90;;;;;;5025271;28;42949;-84
2022/03/13 08:28:16;;;;;;;;;;;14.00;24.80;;;;;;5024445;28;42955;-80
2022/03/13 08:30:42;;;;;;;;;;;13.80;25.00;;;;;;5022401;28;42956;-80
2022/03/13 08:33:08;;;;;;;;;;;13.90;24.90;;;;;;5024795;28;42967;-79
2022/03/13 08:35:34;;;;;;;;;;;14.80;26.30;;;;;;5024752;28;43702;-79
2022/03/13 08:37:59;;;;;;;;;;;13.80;25.00;;;;;;5022011;28;43039;-80
2022/03/13 08:40:25;;;;;;;;;;;14.00;25.10;;;;;;5020758;28;43647;-82
2022/03/13 08:42:53;;;;;;;;;;;14.20;25.50;;;;;;5016664;28;43085;-80
2022/03/13 08:45:19;;;;;;;;;;;14.40;26.30;;;;;;5031065;28;45174;-79
2022/03/13 08:47:46;;;;;;;;;;;14.10;26.50;;;;;;5019710;28;43174;-81
2022/03/13 08:50:13;;;;;;;;;;;14.10;26.40;;;;;;5018785;28;43086;-80
2022/03/13 08:52:39;;;;;;;;;;;14.00;26.60;;;;;;5021023;28;43025;-83
2022/03/13 08:55:05;;;;;;;;;;;14.30;26.70;;;;;;5024609;28;42987;-80
2022/03/13 08:57:31;;;;;;;;;;;14.40;26.90;;;;;;5024943;28;42980;-79
2022/03/13 08:59:56;;;;;;;;;;;14.50;27.00;;;;;;5023191;28;45523;-79
2022/03/13 09:02:22;;;;;;;;;;;14.50;27.10;;;;;;5023293;28;42912;-78
2022/03/13 09:04:48;;;;;;;;;;;14.60;27.90;;;;;;5023977;28;43250;-80
2022/03/13 09:07:13;;;;;;;;;;;14.70;27.80;;;;;;5025993;28;43209;-78
2022/03/13 09:09:39;;;;;;;;;;;14.70;27.80;;;;;;5025506;28;42931;-79
2022/03/13 09:12:06;;;;;;;;;;;14.80;27.90;;;;;;5024809;28;43009;-79
2022/03/13 09:14:34;;;;;;;;;;;14.80;27.80;;;;;;5024548;28;43808;-79
2022/03/13 09:17:01;;;;;;;;;;;14.80;27.80;;;;;;5025133;28;42841;-79
2022/03/13 09:19:26;;;;;;;;;;;14.80;27.60;;;;;;5025232;28;42785;-80
2022/03/13 09:21:52;;;;;;;;;;;14.80;27.60;;;;;;5025076;28;42920;-79
2022/03/13 09:24:17;;;;;;;;;;;14.70;27.60;;;;;;5024753;28;42934;-79
2022/03/13 09:26:43;;;;;;;;;;;14.80;27.40;;;;;;5025402;28;42848;-79
2022/03/13 09:29:09;;;;;;;;;;;14.80;27.20;;;;;;5024771;28;43375;-79
2022/03/13 09:31:34;;;;;;;;;;;14.80;27.30;;;;;;5025051;28;43072;-78
2022/03/13 09:34:00;;;;;;;;;;;14.80;27.30;;;;;;5024370;28;43576;-78
2022/03/13 09:36:26;;;;;;;;;;;14.80;27.10;;;;;;5024866;28;42955;-79
2022/03/13 09:38:52;;;;;;;;;;;14.80;27.30;;;;;;5024384;28;42993;-77
2022/03/13 09:41:18;;;;;;;;;;;14.80;27.30;;;;;;5025112;28;42960;-78
2022/03/13 09:43:43;;;;;;;;;;;14.90;27.50;;;;;;5024864;28;42960;-79
2022/03/13 09:46:09;;;;;;;;;;;14.90;27.50;;;;;;5024657;28;43042;-79
2022/03/13 09:48:36;;;;;;;;;;;14.90;27.50;;;;;;5024248;28;43381;-79
2022/03/13 09:51:04;;;;;;;;;;;14.90;28.00;;;;;;5024317;28;43040;-80
2022/03/13 09:53:30;;;;;;;;;;;15.00;27.90;;;;;;5024110;28;43554;-79
2022/03/13 09:55:56;;;;;;;;;;;15.00;27.50;;;;;;5023057;28;43170;-80
2022/03/13 09:58:21;;;;;;;;;;;15.10;26.70;;;;;;5023897;28;42993;-80
2022/03/13 10:00:47;;;;;;;;;;;14.90;25.90;;;;;;5024565;28;43007;-80
2022/03/13 10:03:13;;;;;;;;;;;14.80;25.10;;;;;;5027498;28;42974;-81
2022/03/13 10:05:43;;;;;;;;;;;14.80;25.60;;;;;;5027516;28;43103;-79
2022/03/13 10:08:08;;;;;;;;;;;14.80;25.50;;;;;;5027659;28;42837;-78
2022/03/13 10:10:45;;;;;;;;;;;14.80;25.50;;;;;;5028084;28;42841;-80
2022/03/13 10:13:11;;;;;;;;;;;14.90;25.70;;;;;;5027762;28;43727;-80
2022/03/13 10:15:46;;;;;;;;;;;14.90;25.80;;;;;;5027321;28;43069;-78
2022/03/13 10:18:17;;;;;;;;;;;14.90;25.90;;;;;;5027387;28;44319;-80
2022/03/13 10:20:43;;;;;;;;;;;14.90;26.20;;;;;;5027197;28;42924;-80
2022/03/13 10:23:16;;;;;;;;;;;14.90;26.10;;;;;;5027302;28;43958;-80
2022/03/13 10:25:42;;;;;;;;;;;14.90;26.20;;;;;;5027182;28;42999;-79
2022/03/13 10:28:11;;;;;;;;;;;15.00;26.00;;;;;;5026687;28;42900;-80
2022/03/13 10:30:37;;;;;;;;;;;14.90;25.90;;;;;;5027127;28;42964;-80
2022/03/13 10:33:02;;;;;;;;;;;14.90;26.20;;;;;;5026917;28;44239;-81
2022/03/13 10:35:28;;;;;;;;;;;15.00;26.20;;;;;;5027016;28;42886;-80
2022/03/13 10:37:55;;;;;;;;;;;15.00;25.70;;;;;;5026720;28;44515;-80
2022/03/13 10:40:24;;;;;;;;;;;15.00;26.10;;;;;;5027161;28;43089;-79
2022/03/13 10:42:50;;;;;;;;;;;15.00;25.70;;;;;;5027537;28;43870;-79
2022/03/13 10:45:37;;;;;;;;;;;15.10;25.80;;;;;;5025945;28;43107;-78
2022/03/13 10:48:21;;;;;;;;;;;15.00;25.40;;;;;;5027068;28;43300;-80
2022/03/13 10:50:51;;;;;;;;;;;15.00;25.80;;;;;;5027229;28;42947;-80
2022/03/13 10:53:18;;;;;;;;;;;15.00;25.90;;;;;;5026755;28;43733;-80
2022/03/13 10:55:44;;;;;;;;;;;15.00;25.80;;;;;;5027100;28;42841;-80
2022/03/13 10:58:10;;;;;;;;;;;15.00;26.20;;;;;;5027333;28;43300;-80
2022/03/13 11:00:35;;;;;;;;;;;14.90;25.80;;;;;;5027502;28;42876;-79
2022/03/13 11:03:14;;;;;;;;;;;14.80;25.50;;;;;;5026895;28;43760;-80
2022/03/13 11:05:40;;;;;;;;;;;14.80;25.30;;;;;;5027228;28;42967;-79
2022/03/13 11:08:08;;;;;;;;;;;14.80;24.90;;;;;;5026984;28;43327;-79
2022/03/13 11:10:37;;;;;;;;;;;14.70;24.20;;;;;;5027205;28;42909;-80
2022/03/13 11:13:05;;;;;;;;;;;14.70;24.50;;;;;;5026577;28;43020;-80
2022/03/13 11:15:32;;;;;;;;;;;14.70;24.70;;;;;;5026474;28;43081;-79
2022/03/13 11:17:59;;;;;;;;;;;14.70;24.50;;;;;;5025994;28;43445;-79
2022/03/13 11:20:25;;;;;;;;;;;14.90;25.30;;;;;;5026064;28;42968;-79
2022/03/13 11:22:50;;;;;;;;;;;14.90;25.20;;;;;;5027073;28;43741;-79
2022/03/13 11:25:16;;;;;;;;;;;14.80;25.00;;;;;;5027013;28;42857;-80
2022/03/13 11:27:42;;;;;;;;;;;14.80;25.30;;;;;;5027050;28;43808;-80
2022/03/13 11:30:12;;;;;;;;;;;14.80;25.20;;;;;;5027284;28;42813;-80
2022/03/13 11:32:38;;;;;;;;;;;14.90;25.40;;;;;;5026838;28;43391;-80
2022/03/13 11:35:10;;;;;;;;;;;14.90;25.50;;;;;;5026682;28;42837;-79
2022/03/13 11:37:35;;;;;;;;;;;15.00;25.50;;;;;;5025456;28;43147;-80
2022/03/13 11:40:02;;;;;;;;;;;14.90;25.50;;;;;;5026933;28;42834;-79
2022/03/13 11:42:43;;;;;;;;;;;15.00;25.80;;;;;;5026970;28;42893;-79
2022/03/13 11:45:30;;;;;;;;;;;15.00;25.60;;;;;;5027259;28;42939;-80
2022/03/13 11:48:17;;;;;;;;;;;15.10;25.40;;;;;;5027649;28;43037;-80
2022/03/13 11:50:58;;;;;;;;;;;15.00;25.30;;;;;;5024641;28;43175;-80
2022/03/13 11:53:32;;;;;;;;;;;14.90;25.30;;;;;;5026192;28;42951;-80
2022/03/13 11:55:57;;;;;;;;;;;14.90;25.30;;;;;;5026179;28;42964;-80
2022/03/13 11:58:38;;;;;;;;;;;14.90;25.60;;;;;;5026113;28;43419;-80
2022/03/13 12:01:07;;;;;;;;;;;14.90;25.30;;;;;;5026210;28;42944;-80
2022/03/13 12:03:32;;;;;;;;;;;14.90;25.10;;;;;;5026072;28;43708;-80
2022/03/13 12:05:59;;;;;;;;;;;14.90;25.50;;;;;;5026474;28;42955;-80
2022/03/13 12:08:45;;;;;;;;;;;14.90;25.40;;;;;;5026049;28;43526;-79
2022/03/13 12:11:29;;;;;;;;;;;14.70;25.10;;;;;;5025792;28;43020;-80
2022/03/13 12:13:55;;;;;;;;;;;14.70;25.20;;;;;;5026086;28;42873;-80
2022/03/13 12:16:21;;;;;;;;;;;14.90;25.20;;;;;;5025909;28;42971;-80
2022/03/13 12:18:57;;;;;;;;;;;14.80;25.00;;;;;;5025193;28;43647;-80
2022/03/13 12:21:22;;;;;;;;;;;14.90;25.20;;;;;;5025714;28;42829;-80
2022/03/13 12:23:48;;;;;;;;;;;14.90;25.40;;;;;;5025402;28;43755;-80
2022/03/13 12:26:19;;;;;;;;;;;14.90;25.00;;;;;;5025331;28;42842;-80
2022/03/13 12:28:46;;;;;;;;;;;14.90;25.50;;;;;;5025368;28;42914;-81
2022/03/13 12:31:12;;;;;;;;;;;15.00;25.90;;;;;;5025309;28;42896;-79
2022/03/13 12:33:47;;;;;;;;;;;15.00;25.40;;;;;;5025149;28;42932;-80
2022/03/13 12:36:13;;;;;;;;;;;15.00;25.20;;;;;;5025712;28;42949;-81
2022/03/13 12:38:43;;;;;;;;;;;14.90;25.10;;;;;;5025359;28;43118;-81
2022/03/13 12:41:09;;;;;;;;;;;14.80;25.10;;;;;;5025600;28;42962;-81
2022/03/13 12:43:47;;;;;;;;;;;14.90;25.60;;;;;;5025149;28;43675;-81
2022/03/13 12:46:14;;;;;;;;;;;14.90;25.70;;;;;;5025415;28;42935;-81
2022/03/13 12:49:12;;;;;;;;;;;14.90;25.70;;;;;;5024892;28;43523;-80
2022/03/13 12:51:46;;;;;;;;;;;14.90;25.80;;;;;;5001807;28;43036;-79
2022/03/13 12:54:13;;;;;;;;;;;14.90;25.60;;;;;;5024453;28;43511;-78
2022/03/13 12:56:45;;;;;;;;;;;14.80;25.30;;;;;;5025200;28;43182;-78
2022/03/13 13:02:27;;;;;;;;;;;14.60;25.20;;;;;;4982601;28;43163;-80
2022/03/13 13:04:56;;;;;;;;;;;14.60;24.80;;;;;;4966264;28;44211;-79
2022/03/13 13:07:26;;;;;;;;;;;14.80;25.40;;;;;;4983269;28;43183;-80
2022/03/13 13:09:52;;;;;;;;;;;14.50;25.00;;;;;;4983394;28;43457;-79
2022/03/13 13:12:19;;;;;;;;;;;14.60;25.10;;;;;;4983201;28;43228;-80
2022/03/13 13:14:48;;;;;;;;;;;14.70;25.40;;;;;;4966977;28;44675;-80
2022/03/13 13:17:18;;;;;;;;;;;14.80;25.50;;;;;;4982870;28;42958;-80
2022/03/13 13:19:45;;;;;;;;;;;14.80;25.10;;;;;;4966043;28;45479;-79
2022/03/13 13:22:11;;;;;;;;;;;14.80;25.20;;;;;;4982559;28;43094;-80
2022/03/13 13:24:50;;;;;;;;;;;14.70;25.20;;;;;;4981807;28;43801;-79
2022/03/13 13:27:30;;;;;;;;;;;14.90;25.50;;;;;;4982750;28;42943;-79
2022/03/13 13:30:14;;;;;;;;;;;14.70;25.30;;;;;;4982166;28;43541;-79
2022/03/13 13:32:47;;;;;;;;;;;14.70;24.90;;;;;;4982425;28;42975;-80
2022/03/13 13:35:15;;;;;;;;;;;14.70;25.30;;;;;;4982360;28;43573;-80
2022/03/13 13:37:59;;;;;;;;;;;14.80;25.50;;;;;;4988132;28;43170;-80
2022/03/13 13:40:26;;;;;;;;;;;14.80;25.50;;;;;;5025234;28;43476;-79
2022/03/13 13:42:58;;;;;;;;;;;14.80;25.50;;;;;;5024300;28;42908;-79
2022/03/13 13:45:25;;;;;;;;;;;14.80;25.30;;;;;;5024492;28;44125;-79
2022/03/13 13:47:51;;;;;;;;;;;14.80;25.70;;;;;;5024568;28;42940;-79
2022/03/13 13:50:18;;;;;;;;;;;14.80;25.60;;;;;;5023930;28;43605;-79
2022/03/13 13:52:44;;;;;;;;;;;14.80;25.50;;;;;;5023593;28;43028;-79
2022/03/13 13:55:22;;;;;;;;;;;14.90;25.90;;;;;;5024061;28;43057;-79
2022/03/13 13:58:08;;;;;;;;;;;14.90;25.80;;;;;;5024572;28;43233;-80
2022/03/13 14:00:34;;;;;;;;;;;14.90;26.00;;;;;;5024224;28;43355;-79
2022/03/13 14:02:59;;;;;;;;;;;14.90;26.30;;;;;;5024426;28;42976;-79
2022/03/13 14:05:25;;;;;;;;;;;14.90;25.80;;;;;;5023830;28;42896;-79
2022/03/13 14:07:50;;;;;;;;;;;14.80;25.70;;;;;;5023976;28;43059;-79
2022/03/13 14:10:16;;;;;;;;;;;14.90;25.70;;;;;;5023497;28;43739;-78
2022/03/13 14:12:42;;;;;;;;;;;14.90;25.70;;;;;;5024780;28;42998;-80
2022/03/13 14:15:08;;;;;;;;;;;15.00;25.90;;;;;;5024359;28;42846;-77
2022/03/13 14:17:35;;;;;;;;;;;14.90;25.70;;;;;;5023740;28;42954;-79
2022/03/13 14:20:00;;;;;;;;;;;14.90;25.80;;;;;;5023907;28;42910;-79